Terminal Aerodrome Forecast
Issued by NWS

Home | Current Version | Previous Version | Text Only | Print | Product List | Glossary On
Versions: 1 2 3 4 5 6 7 8 9 10 11 12 13
000
FTAK31 PAJN 291730
TAFAWG
TAF
PAWG 291730Z 2918/3018 07007KT 6SM -SHRA FEW005 BKN040 OVC060
     FM300000 15004KT P6SM VCSH OVC040
     FM300600 VRB04KT P6SM BKN040 OVC060
      AMD NOT SKED=

USA.gov is the U.S. government's official web portal to all federal, state and local government web resources and services.